sensor_id;sensor_type;location;lat;lon;timestamp;P1;durP1;ratioP1;P2;durP2;ratioP2
72688;SDS011;61053;52.166;4.506;2022-09-23T00:01:03;6.97;;;5.18;;
72688;SDS011;61053;52.166;4.506;2022-09-23T00:03:32;7.30;;;5.45;;
72688;SDS011;61053;52.166;4.506;2022-09-23T00:05:59;10.93;;;5.10;;
72688;SDS011;61053;52.166;4.506;2022-09-23T00:08:32;11.57;;;5.32;;
72688;SDS011;61053;52.166;4.506;2022-09-23T00:11:08;9.25;;;5.10;;
72688;SDS011;61053;52.166;4.506;2022-09-23T00:13:37;8.48;;;5.25;;
72688;SDS011;61053;52.166;4.506;2022-09-23T00:16:09;8.65;;;5.43;;
72688;SDS011;61053;52.166;4.506;2022-09-23T00:18:39;9.45;;;5.15;;
72688;SDS011;61053;52.166;4.506;2022-09-23T00:21:09;7.45;;;5.43;;
72688;SDS011;61053;52.166;4.506;2022-09-23T00:23:41;13.82;;;5.53;;
72688;SDS011;61053;52.166;4.506;2022-09-23T00:26:09;8.75;;;5.50;;
72688;SDS011;61053;52.166;4.506;2022-09-23T00:28:37;8.18;;;5.07;;
72688;SDS011;61053;52.166;4.506;2022-09-23T00:31:04;17.45;;;5.68;;
72688;SDS011;61053;52.166;4.506;2022-09-23T00:33:35;11.10;;;5.63;;
72688;SDS011;61053;52.166;4.506;2022-09-23T00:36:01;9.52;;;5.43;;
72688;SDS011;61053;52.166;4.506;2022-09-23T00:38:30;10.18;;;4.85;;
72688;SDS011;61053;52.166;4.506;2022-09-23T00:40:58;11.65;;;5.45;;
72688;SDS011;61053;52.166;4.506;2022-09-23T00:43:36;7.65;;;5.18;;
72688;SDS011;61053;52.166;4.506;2022-09-23T00:46:12;12.30;;;5.90;;
72688;SDS011;61053;52.166;4.506;2022-09-23T00:51:44;10.00;;;5.43;;
72688;SDS011;61053;52.166;4.506;2022-09-23T00:54:18;7.30;;;5.38;;
72688;SDS011;61053;52.166;4.506;2022-09-23T00:56:51;8.00;;;5.53;;
72688;SDS011;61053;52.166;4.506;2022-09-23T00:59:19;15.15;;;5.45;;
72688;SDS011;61053;52.166;4.506;2022-09-23T01:01:48;7.53;;;5.22;;
72688;SDS011;61053;52.166;4.506;2022-09-23T01:04:18;9.50;;;5.57;;
72688;SDS011;61053;52.166;4.506;2022-09-23T01:06:49;10.80;;;5.85;;
72688;SDS011;61053;52.166;4.506;2022-09-23T01:09:15;7.75;;;5.60;;
72688;SDS011;61053;52.166;4.506;2022-09-23T01:11:45;10.52;;;5.93;;
72688;SDS011;61053;52.166;4.506;2022-09-23T01:14:36;9.10;;;5.75;;
72688;SDS011;61053;52.166;4.506;2022-09-23T01:20:02;15.82;;;5.63;;
72688;SDS011;61053;52.166;4.506;2022-09-23T01:23:12;7.88;;;5.82;;
72688;SDS011;61053;52.166;4.506;2022-09-23T01:34:48;8.65;;;6.00;;
72688;SDS011;61053;52.166;4.506;2022-09-23T01:40:05;11.30;;;5.60;;
72688;SDS011;61053;52.166;4.506;2022-09-23T01:42:46;10.30;;;6.40;;
72688;SDS011;61053;52.166;4.506;2022-09-23T01:45:34;16.75;;;7.00;;
72688;SDS011;61053;52.166;4.506;2022-09-23T01:50:56;11.52;;;6.45;;
72688;SDS011;61053;52.166;4.506;2022-09-23T01:56:23;7.85;;;5.40;;
72688;SDS011;61053;52.166;4.506;2022-09-23T01:59:00;8.48;;;6.03;;
72688;SDS011;61053;52.166;4.506;2022-09-23T02:01:34;8.85;;;5.28;;
72688;SDS011;61053;52.166;4.506;2022-09-23T02:04:24;8.45;;;5.68;;
72688;SDS011;61053;52.166;4.506;2022-09-23T02:07:46;13.38;;;5.90;;
72688;SDS011;61053;52.166;4.506;2022-09-23T02:10:17;8.52;;;5.43;;
72688;SDS011;61053;52.166;4.506;2022-09-23T02:13:16;13.38;;;6.00;;
72688;SDS011;61053;52.166;4.506;2022-09-23T02:15:50;7.47;;;5.05;;
72688;SDS011;61053;52.166;4.506;2022-09-23T02:18:26;8.52;;;5.57;;
72688;SDS011;61053;52.166;4.506;2022-09-23T02:20:56;8.25;;;5.25;;
72688;SDS011;61053;52.166;4.506;2022-09-23T02:23:28;11.02;;;5.88;;
72688;SDS011;61053;52.166;4.506;2022-09-23T02:26:10;8.27;;;4.93;;
72688;SDS011;61053;52.166;4.506;2022-09-23T02:28:53;7.88;;;5.05;;
72688;SDS011;61053;52.166;4.506;2022-09-23T02:31:45;7.68;;;5.13;;
72688;SDS011;61053;52.166;4.506;2022-09-23T02:34:45;7.47;;;4.93;;
72688;SDS011;61053;52.166;4.506;2022-09-23T02:40:35;8.57;;;5.65;;
72688;SDS011;61053;52.166;4.506;2022-09-23T02:46:16;19.15;;;6.00;;
72688;SDS011;61053;52.166;4.506;2022-09-23T02:48:47;6.93;;;5.03;;
72688;SDS011;61053;52.166;4.506;2022-09-23T02:51:22;7.55;;;5.00;;
72688;SDS011;61053;52.166;4.506;2022-09-23T02:53:53;7.43;;;5.22;;
72688;SDS011;61053;52.166;4.506;2022-09-23T02:56:21;10.65;;;5.25;;
72688;SDS011;61053;52.166;4.506;2022-09-23T02:58:48;8.98;;;5.13;;
72688;SDS011;61053;52.166;4.506;2022-09-23T03:13:41;8.75;;;5.50;;
72688;SDS011;61053;52.166;4.506;2022-09-23T03:19:39;9.95;;;4.97;;
72688;SDS011;61053;52.166;4.506;2022-09-23T03:22:24;9.50;;;5.40;;
72688;SDS011;61053;52.166;4.506;2022-09-23T03:24:58;10.27;;;5.78;;
72688;SDS011;61053;52.166;4.506;2022-09-23T03:27:31;6.93;;;5.28;;
72688;SDS011;61053;52.166;4.506;2022-09-23T03:30:01;6.80;;;4.60;;
72688;SDS011;61053;52.166;4.506;2022-09-23T03:32:29;8.95;;;4.97;;
72688;SDS011;61053;52.166;4.506;2022-09-23T03:34:57;9.13;;;4.93;;
72688;SDS011;61053;52.166;4.506;2022-09-23T03:37:37;8.18;;;5.25;;
72688;SDS011;61053;52.166;4.506;2022-09-23T03:40:18;9.82;;;5.68;;
72688;SDS011;61053;52.166;4.506;2022-09-23T03:42:50;8.90;;;4.78;;
72688;SDS011;61053;52.166;4.506;2022-09-23T03:45:21;7.22;;;4.65;;
72688;SDS011;61053;52.166;4.506;2022-09-23T03:47:53;10.13;;;4.97;;
72688;SDS011;61053;52.166;4.506;2022-09-23T03:50:19;7.60;;;5.05;;
72688;SDS011;61053;52.166;4.506;2022-09-23T03:52:49;7.68;;;4.57;;
72688;SDS011;61053;52.166;4.506;2022-09-23T03:55:15;9.63;;;5.25;;
72688;SDS011;61053;52.166;4.506;2022-09-23T03:57:42;7.60;;;5.28;;
72688;SDS011;61053;52.166;4.506;2022-09-23T04:00:09;8.45;;;4.60;;
72688;SDS011;61053;52.166;4.506;2022-09-23T04:02:37;7.93;;;5.20;;
72688;SDS011;61053;52.166;4.506;2022-09-23T04:05:03;7.57;;;5.07;;
72688;SDS011;61053;52.166;4.506;2022-09-23T04:07:29;5.88;;;4.38;;
72688;SDS011;61053;52.166;4.506;2022-09-23T04:09:55;8.00;;;5.05;;
72688;SDS011;61053;52.166;4.506;2022-09-23T04:12:20;6.97;;;4.88;;
72688;SDS011;61053;52.166;4.506;2022-09-23T04:14:46;7.50;;;4.97;;
72688;SDS011;61053;52.166;4.506;2022-09-23T04:17:12;5.18;;;4.28;;
72688;SDS011;61053;52.166;4.506;2022-09-23T04:19:38;7.55;;;4.80;;
72688;SDS011;61053;52.166;4.506;2022-09-23T04:22:04;6.95;;;4.85;;
72688;SDS011;61053;52.166;4.506;2022-09-23T04:24:30;9.18;;;4.55;;
72688;SDS011;61053;52.166;4.506;2022-09-23T04:26:56;6.88;;;4.55;;
72688;SDS011;61053;52.166;4.506;2022-09-23T04:29:22;7.35;;;5.00;;
72688;SDS011;61053;52.166;4.506;2022-09-23T04:31:50;8.77;;;5.35;;
72688;SDS011;61053;52.166;4.506;2022-09-23T04:34:16;8.18;;;5.07;;
72688;SDS011;61053;52.166;4.506;2022-09-23T04:36:45;10.55;;;4.68;;
72688;SDS011;61053;52.166;4.506;2022-09-23T04:39:13;8.85;;;5.43;;
72688;SDS011;61053;52.166;4.506;2022-09-23T04:41:42;15.85;;;4.78;;
72688;SDS011;61053;52.166;4.506;2022-09-23T04:44:12;8.20;;;5.18;;
72688;SDS011;61053;52.166;4.506;2022-09-23T04:46:39;7.78;;;4.45;;
72688;SDS011;61053;52.166;4.506;2022-09-23T04:49:05;6.70;;;4.88;;
72688;SDS011;61053;52.166;4.506;2022-09-23T04:51:31;8.95;;;5.22;;
72688;SDS011;61053;52.166;4.506;2022-09-23T04:53:57;9.32;;;5.15;;
72688;SDS011;61053;52.166;4.506;2022-09-23T04:56:27;9.75;;;4.88;;
72688;SDS011;61053;52.166;4.506;2022-09-23T04:58:57;8.18;;;4.85;;
72688;SDS011;61053;52.166;4.506;2022-09-23T05:01:23;8.25;;;5.32;;
72688;SDS011;61053;52.166;4.506;2022-09-23T05:03:53;6.55;;;4.35;;
72688;SDS011;61053;52.166;4.506;2022-09-23T05:06:26;7.53;;;4.53;;
72688;SDS011;61053;52.166;4.506;2022-09-23T05:08:55;7.80;;;5.00;;
72688;SDS011;61053;52.166;4.506;2022-09-23T05:11:23;11.43;;;5.05;;
72688;SDS011;61053;52.166;4.506;2022-09-23T05:13:50;7.68;;;4.85;;
72688;SDS011;61053;52.166;4.506;2022-09-23T05:16:19;8.32;;;4.70;;
72688;SDS011;61053;52.166;4.506;2022-09-23T05:18:50;9.43;;;5.32;;
72688;SDS011;61053;52.166;4.506;2022-09-23T05:21:17;11.32;;;5.53;;
72688;SDS011;61053;52.166;4.506;2022-09-23T05:23:48;10.38;;;5.05;;
72688;SDS011;61053;52.166;4.506;2022-09-23T05:26:20;9.25;;;4.97;;
72688;SDS011;61053;52.166;4.506;2022-09-23T05:28:49;6.82;;;4.60;;
72688;SDS011;61053;52.166;4.506;2022-09-23T05:31:21;8.82;;;4.53;;
72688;SDS011;61053;52.166;4.506;2022-09-23T05:33:50;13.60;;;5.85;;
72688;SDS011;61053;52.166;4.506;2022-09-23T05:36:21;9.93;;;4.65;;
72688;SDS011;61053;52.166;4.506;2022-09-23T05:38:48;8.70;;;5.20;;
72688;SDS011;61053;52.166;4.506;2022-09-23T05:41:15;10.50;;;5.13;;
72688;SDS011;61053;52.166;4.506;2022-09-23T05:43:43;8.98;;;4.97;;
72688;SDS011;61053;52.166;4.506;2022-09-23T05:48:40;9.60;;;5.47;;
72688;SDS011;61053;52.166;4.506;2022-09-23T05:51:08;8.23;;;5.00;;
72688;SDS011;61053;52.166;4.506;2022-09-23T05:53:39;13.27;;;5.25;;
72688;SDS011;61053;52.166;4.506;2022-09-23T05:56:08;7.03;;;4.72;;
72688;SDS011;61053;52.166;4.506;2022-09-23T05:58:34;7.50;;;4.80;;
72688;SDS011;61053;52.166;4.506;2022-09-23T06:01:00;10.45;;;5.60;;
72688;SDS011;61053;52.166;4.506;2022-09-23T06:03:46;9.63;;;5.40;;
72688;SDS011;61053;52.166;4.506;2022-09-23T06:06:13;10.73;;;5.72;;
72688;SDS011;61053;52.166;4.506;2022-09-23T06:08:41;7.68;;;4.80;;
72688;SDS011;61053;52.166;4.506;2022-09-23T06:11:09;10.77;;;5.00;;
72688;SDS011;61053;52.166;4.506;2022-09-23T06:13:36;8.30;;;5.10;;
72688;SDS011;61053;52.166;4.506;2022-09-23T06:16:05;14.88;;;4.90;;
72688;SDS011;61053;52.166;4.506;2022-09-23T06:18:40;8.10;;;4.97;;
72688;SDS011;61053;52.166;4.506;2022-09-23T06:21:12;7.93;;;4.85;;
72688;SDS011;61053;52.166;4.506;2022-09-23T06:23:40;9.25;;;5.22;;
72688;SDS011;61053;52.166;4.506;2022-09-23T06:26:08;11.20;;;5.18;;
72688;SDS011;61053;52.166;4.506;2022-09-23T06:28:39;6.72;;;4.85;;
72688;SDS011;61053;52.166;4.506;2022-09-23T06:31:13;8.07;;;4.93;;
72688;SDS011;61053;52.166;4.506;2022-09-23T06:33:42;11.38;;;4.90;;
72688;SDS011;61053;52.166;4.506;2022-09-23T06:36:11;8.50;;;5.03;;
72688;SDS011;61053;52.166;4.506;2022-09-23T06:38:42;9.25;;;5.47;;
72688;SDS011;61053;52.166;4.506;2022-09-23T06:41:08;12.13;;;5.82;;
72688;SDS011;61053;52.166;4.506;2022-09-23T06:43:36;7.95;;;4.88;;
72688;SDS011;61053;52.166;4.506;2022-09-23T06:46:05;9.38;;;5.15;;
72688;SDS011;61053;52.166;4.506;2022-09-23T06:48:32;10.85;;;5.90;;
72688;SDS011;61053;52.166;4.506;2022-09-23T06:50:59;8.85;;;5.65;;
72688;SDS011;61053;52.166;4.506;2022-09-23T06:53:29;9.80;;;5.38;;
72688;SDS011;61053;52.166;4.506;2022-09-23T06:56:02;6.45;;;4.55;;
72688;SDS011;61053;52.166;4.506;2022-09-23T06:58:31;14.32;;;5.50;;
72688;SDS011;61053;52.166;4.506;2022-09-23T07:03:31;7.97;;;4.70;;
72688;SDS011;61053;52.166;4.506;2022-09-23T07:05:58;9.20;;;5.72;;
72688;SDS011;61053;52.166;4.506;2022-09-23T07:08:24;10.90;;;5.10;;
72688;SDS011;61053;52.166;4.506;2022-09-23T07:10:54;10.48;;;6.28;;
72688;SDS011;61053;52.166;4.506;2022-09-23T07:13:24;10.65;;;5.70;;
72688;SDS011;61053;52.166;4.506;2022-09-23T07:15:51;8.23;;;5.07;;
72688;SDS011;61053;52.166;4.506;2022-09-23T07:18:29;10.45;;;5.93;;
72688;SDS011;61053;52.166;4.506;2022-09-23T07:21:09;8.85;;;5.15;;
72688;SDS011;61053;52.166;4.506;2022-09-23T07:23:46;6.88;;;4.93;;
72688;SDS011;61053;52.166;4.506;2022-09-23T07:28:58;11.38;;;6.38;;
72688;SDS011;61053;52.166;4.506;2022-09-23T07:31:29;8.90;;;5.75;;
72688;SDS011;61053;52.166;4.506;2022-09-23T07:33:59;9.55;;;5.70;;
72688;SDS011;61053;52.166;4.506;2022-09-23T07:36:26;10.10;;;6.32;;
72688;SDS011;61053;52.166;4.506;2022-09-23T07:38:55;9.68;;;6.00;;
72688;SDS011;61053;52.166;4.506;2022-09-23T07:41:25;8.02;;;5.53;;
72688;SDS011;61053;52.166;4.506;2022-09-23T07:43:52;9.40;;;5.68;;
72688;SDS011;61053;52.166;4.506;2022-09-23T07:46:22;8.90;;;5.63;;
72688;SDS011;61053;52.166;4.506;2022-09-23T07:48:57;8.55;;;5.18;;
72688;SDS011;61053;52.166;4.506;2022-09-23T07:51:33;10.77;;;6.28;;
72688;SDS011;61053;52.166;4.506;2022-09-23T07:54:02;14.45;;;6.07;;
72688;SDS011;61053;52.166;4.506;2022-09-23T07:56:35;11.80;;;6.38;;
72688;SDS011;61053;52.166;4.506;2022-09-23T07:59:03;10.05;;;6.60;;
72688;SDS011;61053;52.166;4.506;2022-09-23T08:01:40;10.18;;;5.65;;
72688;SDS011;61053;52.166;4.506;2022-09-23T08:06:59;10.65;;;5.78;;
72688;SDS011;61053;52.166;4.506;2022-09-23T08:09:30;10.88;;;6.10;;
72688;SDS011;61053;52.166;4.506;2022-09-23T08:12:05;8.60;;;5.82;;
72688;SDS011;61053;52.166;4.506;2022-09-23T08:14:32;11.65;;;6.07;;
72688;SDS011;61053;52.166;4.506;2022-09-23T08:16:58;10.25;;;6.38;;
72688;SDS011;61053;52.166;4.506;2022-09-23T08:19:23;13.93;;;6.13;;
72688;SDS011;61053;52.166;4.506;2022-09-23T08:21:49;9.55;;;5.75;;
72688;SDS011;61053;52.166;4.506;2022-09-23T08:24:19;13.00;;;6.18;;
72688;SDS011;61053;52.166;4.506;2022-09-23T08:26:48;15.18;;;6.40;;
72688;SDS011;61053;52.166;4.506;2022-09-23T08:29:17;14.68;;;6.05;;
72688;SDS011;61053;52.166;4.506;2022-09-23T08:31:47;9.48;;;6.15;;
72688;SDS011;61053;52.166;4.506;2022-09-23T08:34:14;10.35;;;6.32;;
72688;SDS011;61053;52.166;4.506;2022-09-23T08:36:44;11.77;;;6.60;;
72688;SDS011;61053;52.166;4.506;2022-09-23T08:39:13;9.57;;;5.78;;
72688;SDS011;61053;52.166;4.506;2022-09-23T08:55:20;10.25;;;6.40;;
72688;SDS011;61053;52.166;4.506;2022-09-23T09:04:42;11.70;;;5.85;;
72688;SDS011;61053;52.166;4.506;2022-09-23T09:09:59;9.35;;;5.80;;
72688;SDS011;61053;52.166;4.506;2022-09-23T09:15:20;12.45;;;5.68;;
72688;SDS011;61053;52.166;4.506;2022-09-23T09:21:18;10.68;;;5.68;;
72688;SDS011;61053;52.166;4.506;2022-09-23T09:31:43;12.27;;;5.95;;
72688;SDS011;61053;52.166;4.506;2022-09-23T09:39:33;14.20;;;5.97;;
72688;SDS011;61053;52.166;4.506;2022-09-23T09:42:00;11.82;;;6.85;;
72688;SDS011;61053;52.166;4.506;2022-09-23T09:44:34;10.45;;;5.60;;
72688;SDS011;61053;52.166;4.506;2022-09-23T09:53:23;9.98;;;5.80;;
72688;SDS011;61053;52.166;4.506;2022-09-23T09:55:59;12.85;;;6.15;;
72688;SDS011;61053;52.166;4.506;2022-09-23T09:58:59;10.70;;;5.75;;
72688;SDS011;61053;52.166;4.506;2022-09-23T10:01:26;14.80;;;6.57;;
72688;SDS011;61053;52.166;4.506;2022-09-23T10:03:58;13.38;;;5.88;;
72688;SDS011;61053;52.166;4.506;2022-09-23T10:06:31;10.57;;;6.57;;
72688;SDS011;61053;52.166;4.506;2022-09-23T10:11:25;12.27;;;6.13;;
72688;SDS011;61053;52.166;4.506;2022-09-23T10:16:42;10.30;;;6.43;;
72688;SDS011;61053;52.166;4.506;2022-09-23T10:19:31;9.70;;;6.00;;
72688;SDS011;61053;52.166;4.506;2022-09-23T10:21:59;10.13;;;5.18;;
72688;SDS011;61053;52.166;4.506;2022-09-23T10:24:48;13.45;;;5.47;;
72688;SDS011;61053;52.166;4.506;2022-09-23T10:27:29;9.13;;;5.85;;
72688;SDS011;61053;52.166;4.506;2022-09-23T10:29:59;13.48;;;6.35;;
72688;SDS011;61053;52.166;4.506;2022-09-23T10:32:48;9.90;;;6.28;;
72688;SDS011;61053;52.166;4.506;2022-09-23T10:35:22;10.23;;;6.35;;
72688;SDS011;61053;52.166;4.506;2022-09-23T10:37:51;9.95;;;6.25;;
72688;SDS011;61053;52.166;4.506;2022-09-23T10:46:29;8.63;;;6.07;;
72688;SDS011;61053;52.166;4.506;2022-09-23T10:55:41;8.57;;;5.00;;
72688;SDS011;61053;52.166;4.506;2022-09-23T11:01:42;8.30;;;4.97;;
72688;SDS011;61053;52.166;4.506;2022-09-23T11:07:30;8.85;;;4.72;;
72688;SDS011;61053;52.166;4.506;2022-09-23T11:19:16;6.18;;;4.68;;
72688;SDS011;61053;52.166;4.506;2022-09-23T11:22:14;13.98;;;5.38;;
72688;SDS011;61053;52.166;4.506;2022-09-23T11:24:57;9.15;;;5.03;;
72688;SDS011;61053;52.166;4.506;2022-09-23T11:34:15;10.50;;;4.78;;
72688;SDS011;61053;52.166;4.506;2022-09-23T11:37:07;8.85;;;5.05;;
72688;SDS011;61053;52.166;4.506;2022-09-23T11:39:42;11.82;;;5.45;;
72688;SDS011;61053;52.166;4.506;2022-09-23T11:42:38;12.00;;;5.10;;
72688;SDS011;61053;52.166;4.506;2022-09-23T11:45:19;15.73;;;5.47;;
72688;SDS011;61053;52.166;4.506;2022-09-23T11:51:13;9.82;;;5.55;;
72688;SDS011;61053;52.166;4.506;2022-09-23T11:54:38;11.07;;;5.20;;
72688;SDS011;61053;52.166;4.506;2022-09-23T11:56:59;10.50;;;5.75;;
72688;SDS011;61053;52.166;4.506;2022-09-23T12:02:22;13.43;;;5.72;;
72688;SDS011;61053;52.166;4.506;2022-09-23T12:04:54;8.52;;;5.25;;
72688;SDS011;61053;52.166;4.506;2022-09-23T12:13:02;12.15;;;6.22;;
72688;SDS011;61053;52.166;4.506;2022-09-23T12:28:26;5.38;;;3.88;;
72688;SDS011;61053;52.166;4.506;2022-09-23T12:31:07;7.00;;;3.92;;
72688;SDS011;61053;52.166;4.506;2022-09-23T12:33:38;8.70;;;4.13;;
72688;SDS011;61053;52.166;4.506;2022-09-23T12:36:12;5.88;;;3.70;;
72688;SDS011;61053;52.166;4.506;2022-09-23T12:38:58;7.20;;;3.70;;
72688;SDS011;61053;52.166;4.506;2022-09-23T12:41:42;6.55;;;3.72;;
72688;SDS011;61053;52.166;4.506;2022-09-23T12:49:45;4.93;;;3.40;;
72688;SDS011;61053;52.166;4.506;2022-09-23T12:54:43;10.43;;;3.80;;
72688;SDS011;61053;52.166;4.506;2022-09-23T12:59:58;5.47;;;2.95;;
72688;SDS011;61053;52.166;4.506;2022-09-23T13:02:51;6.22;;;3.10;;
72688;SDS011;61053;52.166;4.506;2022-09-23T13:05:41;6.43;;;3.22;;
72688;SDS011;61053;52.166;4.506;2022-09-23T13:11:00;7.60;;;3.70;;
72688;SDS011;61053;52.166;4.506;2022-09-23T13:13:39;6.65;;;3.60;;
72688;SDS011;61053;52.166;4.506;2022-09-23T13:16:40;5.85;;;3.35;;
72688;SDS011;61053;52.166;4.506;2022-09-23T13:19:06;6.55;;;3.80;;
72688;SDS011;61053;52.166;4.506;2022-09-23T13:27:08;7.70;;;4.72;;
72688;SDS011;61053;52.166;4.506;2022-09-23T13:32:20;7.05;;;4.35;;
72688;SDS011;61053;52.166;4.506;2022-09-23T13:34:57;6.70;;;3.83;;
72688;SDS011;61053;52.166;4.506;2022-09-23T13:37:31;5.47;;;3.95;;
72688;SDS011;61053;52.166;4.506;2022-09-23T13:40:16;5.85;;;3.97;;
72688;SDS011;61053;52.166;4.506;2022-09-23T13:42:46;8.70;;;4.38;;
72688;SDS011;61053;52.166;4.506;2022-09-23T13:45:20;8.68;;;4.10;;
72688;SDS011;61053;52.166;4.506;2022-09-23T13:47:48;14.20;;;4.93;;
72688;SDS011;61053;52.166;4.506;2022-09-23T13:50:22;7.22;;;3.88;;
72688;SDS011;61053;52.166;4.506;2022-09-23T13:53:01;6.30;;;4.28;;
72688;SDS011;61053;52.166;4.506;2022-09-23T13:55:34;8.32;;;4.60;;
72688;SDS011;61053;52.166;4.506;2022-09-23T13:58:17;9.70;;;4.45;;
72688;SDS011;61053;52.166;4.506;2022-09-23T14:00:48;10.35;;;4.93;;
72688;SDS011;61053;52.166;4.506;2022-09-23T14:03:16;8.57;;;4.50;;
72688;SDS011;61053;52.166;4.506;2022-09-23T14:05:55;9.07;;;4.53;;
72688;SDS011;61053;52.166;4.506;2022-09-23T14:08:24;8.65;;;4.43;;
72688;SDS011;61053;52.166;4.506;2022-09-23T14:10:50;10.65;;;4.90;;
72688;SDS011;61053;52.166;4.506;2022-09-23T14:13:25;6.97;;;4.45;;
72688;SDS011;61053;52.166;4.506;2022-09-23T14:15:56;13.30;;;4.82;;
72688;SDS011;61053;52.166;4.506;2022-09-23T14:18:36;7.60;;;4.43;;
72688;SDS011;61053;52.166;4.506;2022-09-23T14:24:20;4.72;;;3.80;;
72688;SDS011;61053;52.166;4.506;2022-09-23T14:29:32;7.82;;;4.70;;
72688;SDS011;61053;52.166;4.506;2022-09-23T14:32:20;7.10;;;5.28;;
72688;SDS011;61053;52.166;4.506;2022-09-23T14:34:52;9.73;;;4.68;;
72688;SDS011;61053;52.166;4.506;2022-09-23T14:37:40;10.30;;;4.85;;
72688;SDS011;61053;52.166;4.506;2022-09-23T14:40:47;7.95;;;4.28;;
72688;SDS011;61053;52.166;4.506;2022-09-23T14:43:47;7.05;;;5.18;;
72688;SDS011;61053;52.166;4.506;2022-09-23T14:46:22;9.73;;;5.68;;
72688;SDS011;61053;52.166;4.506;2022-09-23T14:48:55;12.70;;;5.78;;
72688;SDS011;61053;52.166;4.506;2022-09-23T14:51:47;8.25;;;6.00;;
72688;SDS011;61053;52.166;4.506;2022-09-23T15:05:14;11.02;;;7.20;;
72688;SDS011;61053;52.166;4.506;2022-09-23T15:07:50;12.13;;;7.55;;
72688;SDS011;61053;52.166;4.506;2022-09-23T15:10:27;12.60;;;6.88;;
72688;SDS011;61053;52.166;4.506;2022-09-23T15:13:01;16.20;;;7.72;;
72688;SDS011;61053;52.166;4.506;2022-09-23T15:15:38;17.42;;;7.97;;
72688;SDS011;61053;52.166;4.506;2022-09-23T15:18:16;12.52;;;7.38;;
72688;SDS011;61053;52.166;4.506;2022-09-23T15:20:56;11.65;;;6.80;;
72688;SDS011;61053;52.166;4.506;2022-09-23T15:26:18;11.48;;;7.25;;
72688;SDS011;61053;52.166;4.506;2022-09-23T15:29:07;14.02;;;7.22;;
72688;SDS011;61053;52.166;4.506;2022-09-23T15:31:37;11.88;;;7.38;;
72688;SDS011;61053;52.166;4.506;2022-09-23T15:34:03;17.98;;;8.35;;
72688;SDS011;61053;52.166;4.506;2022-09-23T15:36:33;12.35;;;8.18;;
72688;SDS011;61053;52.166;4.506;2022-09-23T15:39:02;13.25;;;7.63;;
72688;SDS011;61053;52.166;4.506;2022-09-23T15:41:30;11.40;;;7.47;;
72688;SDS011;61053;52.166;4.506;2022-09-23T15:43:57;12.88;;;7.10;;
72688;SDS011;61053;52.166;4.506;2022-09-23T15:46:29;14.18;;;7.65;;
72688;SDS011;61053;52.166;4.506;2022-09-23T15:51:24;14.00;;;8.65;;
72688;SDS011;61053;52.166;4.506;2022-09-23T15:53:51;13.77;;;8.52;;
72688;SDS011;61053;52.166;4.506;2022-09-23T15:56:19;16.92;;;8.63;;
72688;SDS011;61053;52.166;4.506;2022-09-23T15:58:46;17.17;;;9.60;;
72688;SDS011;61053;52.166;4.506;2022-09-23T16:01:16;13.13;;;7.85;;
72688;SDS011;61053;52.166;4.506;2022-09-23T16:03:52;13.75;;;7.93;;
72688;SDS011;61053;52.166;4.506;2022-09-23T16:06:19;18.23;;;9.25;;
72688;SDS011;61053;52.166;4.506;2022-09-23T16:08:46;17.80;;;9.93;;
72688;SDS011;61053;52.166;4.506;2022-09-23T16:11:19;15.95;;;8.77;;
72688;SDS011;61053;52.166;4.506;2022-09-23T16:13:55;8.07;;;4.13;;
72688;SDS011;61053;52.166;4.506;2022-09-23T16:16:24;7.18;;;4.50;;
72688;SDS011;61053;52.166;4.506;2022-09-23T16:18:51;7.07;;;4.15;;
72688;SDS011;61053;52.166;4.506;2022-09-23T16:21:20;4.60;;;3.08;;
72688;SDS011;61053;52.166;4.506;2022-09-23T16:23:52;5.50;;;3.80;;
72688;SDS011;61053;52.166;4.506;2022-09-23T16:26:30;7.05;;;3.90;;
72688;SDS011;61053;52.166;4.506;2022-09-23T16:28:59;8.82;;;3.20;;
72688;SDS011;61053;52.166;4.506;2022-09-23T16:31:26;4.95;;;2.65;;
72688;SDS011;61053;52.166;4.506;2022-09-23T16:33:55;3.45;;;2.42;;
72688;SDS011;61053;52.166;4.506;2022-09-23T16:39:06;5.13;;;2.28;;
72688;SDS011;61053;52.166;4.506;2022-09-23T16:41:38;2.50;;;1.98;;
72688;SDS011;61053;52.166;4.506;2022-09-23T16:44:08;2.75;;;2.20;;
72688;SDS011;61053;52.166;4.506;2022-09-23T16:46:36;5.50;;;2.55;;
72688;SDS011;61053;52.166;4.506;2022-09-23T16:49:02;3.95;;;2.50;;
72688;SDS011;61053;52.166;4.506;2022-09-23T16:51:29;5.70;;;3.28;;
72688;SDS011;61053;52.166;4.506;2022-09-23T16:54:03;7.28;;;4.53;;
72688;SDS011;61053;52.166;4.506;2022-09-23T16:56:35;7.00;;;3.92;;
72688;SDS011;61053;52.166;4.506;2022-09-23T16:59:03;7.03;;;3.40;;
72688;SDS011;61053;52.166;4.506;2022-09-23T17:01:29;5.63;;;3.47;;
72688;SDS011;61053;52.166;4.506;2022-09-23T17:04:13;4.00;;;3.33;;
72688;SDS011;61053;52.166;4.506;2022-09-23T17:06:45;4.80;;;3.50;;
72688;SDS011;61053;52.166;4.506;2022-09-23T17:09:14;7.25;;;4.05;;
72688;SDS011;61053;52.166;4.506;2022-09-23T17:11:51;11.32;;;4.35;;
72688;SDS011;61053;52.166;4.506;2022-09-23T17:14:23;10.07;;;4.47;;
72688;SDS011;61053;52.166;4.506;2022-09-23T17:16:49;6.45;;;4.20;;
72688;SDS011;61053;52.166;4.506;2022-09-23T17:19:15;7.03;;;4.60;;
72688;SDS011;61053;52.166;4.506;2022-09-23T17:21:41;8.95;;;4.53;;
72688;SDS011;61053;52.166;4.506;2022-09-23T17:24:06;5.97;;;4.00;;
72688;SDS011;61053;52.166;4.506;2022-09-23T17:26:32;7.03;;;4.43;;
72688;SDS011;61053;52.166;4.506;2022-09-23T17:28:58;8.18;;;5.00;;
72688;SDS011;61053;52.166;4.506;2022-09-23T17:31:25;9.75;;;5.47;;
72688;SDS011;61053;52.166;4.506;2022-09-23T17:33:52;10.68;;;5.03;;
72688;SDS011;61053;52.166;4.506;2022-09-23T17:36:18;8.50;;;4.65;;
72688;SDS011;61053;52.166;4.506;2022-09-23T17:38:45;7.55;;;5.50;;
72688;SDS011;61053;52.166;4.506;2022-09-23T17:41:13;8.57;;;5.10;;
72688;SDS011;61053;52.166;4.506;2022-09-23T17:43:40;8.20;;;5.22;;
72688;SDS011;61053;52.166;4.506;2022-09-23T17:46:08;10.18;;;5.30;;
72688;SDS011;61053;52.166;4.506;2022-09-23T17:48:40;10.23;;;5.53;;
72688;SDS011;61053;52.166;4.506;2022-09-23T17:51:11;10.60;;;5.72;;
72688;SDS011;61053;52.166;4.506;2022-09-23T17:53:43;12.65;;;6.18;;
72688;SDS011;61053;52.166;4.506;2022-09-23T17:58:43;15.57;;;6.45;;
72688;SDS011;61053;52.166;4.506;2022-09-23T18:01:11;9.65;;;6.40;;
72688;SDS011;61053;52.166;4.506;2022-09-23T18:03:55;10.43;;;6.85;;
72688;SDS011;61053;52.166;4.506;2022-09-23T18:06:27;10.82;;;7.35;;
72688;SDS011;61053;52.166;4.506;2022-09-23T18:08:57;11.57;;;6.97;;
72688;SDS011;61053;52.166;4.506;2022-09-23T18:11:32;15.02;;;8.73;;
72688;SDS011;61053;52.166;4.506;2022-09-23T18:16:35;11.85;;;8.52;;
72688;SDS011;61053;52.166;4.506;2022-09-23T18:19:03;14.25;;;8.98;;
72688;SDS011;61053;52.166;4.506;2022-09-23T18:21:36;24.05;;;10.55;;
72688;SDS011;61053;52.166;4.506;2022-09-23T18:24:07;17.23;;;10.07;;
72688;SDS011;61053;52.166;4.506;2022-09-23T18:26:33;19.25;;;11.40;;
72688;SDS011;61053;52.166;4.506;2022-09-23T18:29:00;16.75;;;10.85;;
72688;SDS011;61053;52.166;4.506;2022-09-23T18:31:26;20.52;;;12.82;;
72688;SDS011;61053;52.166;4.506;2022-09-23T18:33:58;21.40;;;12.93;;
72688;SDS011;61053;52.166;4.506;2022-09-23T18:36:25;24.40;;;13.55;;
72688;SDS011;61053;52.166;4.506;2022-09-23T18:38:52;25.85;;;14.10;;
72688;SDS011;61053;52.166;4.506;2022-09-23T18:41:18;29.10;;;15.45;;
72688;SDS011;61053;52.166;4.506;2022-09-23T18:43:43;33.33;;;16.33;;
72688;SDS011;61053;52.166;4.506;2022-09-23T18:46:12;35.38;;;16.10;;
72688;SDS011;61053;52.166;4.506;2022-09-23T18:48:40;37.45;;;17.00;;
72688;SDS011;61053;52.166;4.506;2022-09-23T18:51:26;37.78;;;18.08;;
72688;SDS011;61053;52.166;4.506;2022-09-23T18:53:56;37.15;;;18.88;;